sensor_id;sensor_type;location;lat;lon;timestamp;temperature;humidity
4002;DHT22;2015;48.670;9.060;2024-01-11T00:01:39;-4.50;99.90
4002;DHT22;2015;48.670;9.060;2024-01-11T00:04:11;-4.50;99.90
4002;DHT22;2015;48.670;9.060;2024-01-11T00:06:43;-4.50;99.90
4002;DHT22;2015;48.670;9.060;2024-01-11T00:09:16;-4.60;99.90
4002;DHT22;2015;48.670;9.060;2024-01-11T00:11:47;-4.60;99.90
4002;DHT22;2015;48.670;9.060;2024-01-11T00:14:19;-4.60;99.90
4002;DHT22;2015;48.670;9.060;2024-01-11T00:16:51;-4.60;99.90
4002;DHT22;2015;48.670;9.060;2024-01-11T00:19:24;-4.60;99.90
4002;DHT22;2015;48.670;9.060;2024-01-11T00:21:55;-4.60;99.90
4002;DHT22;2015;48.670;9.060;2024-01-11T00:24:27;-4.60;99.90
4002;DHT22;2015;48.670;9.060;2024-01-11T00:26:59;-4.60;99.90
4002;DHT22;2015;48.670;9.060;2024-01-11T00:29:31;-4.60;99.90
4002;DHT22;2015;48.670;9.060;2024-01-11T00:32:03;-4.60;99.90
4002;DHT22;2015;48.670;9.060;2024-01-11T00:34:35;-4.60;99.90
4002;DHT22;2015;48.670;9.060;2024-01-11T00:37:07;-4.60;99.90
4002;DHT22;2015;48.670;9.060;2024-01-11T00:39:39;-4.60;99.90
4002;DHT22;2015;48.670;9.060;2024-01-11T00:42:11;-4.70;99.90
4002;DHT22;2015;48.670;9.060;2024-01-11T00:44:43;-4.80;99.90
4002;DHT22;2015;48.670;9.060;2024-01-11T00:47:16;-4.80;99.90
4002;DHT22;2015;48.670;9.060;2024-01-11T00:49:48;-4.80;99.90
4002;DHT22;2015;48.670;9.060;2024-01-11T00:52:20;-4.90;99.90
4002;DHT22;2015;48.670;9.060;2024-01-11T00:54:51;-4.90;99.90
4002;DHT22;2015;48.670;9.060;2024-01-11T00:57:24;-4.90;99.90
4002;DHT22;2015;48.670;9.060;2024-01-11T00:59:55;-4.90;99.90
4002;DHT22;2015;48.670;9.060;2024-01-11T01:02:27;-5.00;99.90
4002;DHT22;2015;48.670;9.060;2024-01-11T01:04:59;-5.00;99.90
4002;DHT22;2015;48.670;9.060;2024-01-11T01:07:31;-5.00;99.90
4002;DHT22;2015;48.670;9.060;2024-01-11T01:10:02;-4.90;99.90
4002;DHT22;2015;48.670;9.060;2024-01-11T01:12:34;-4.90;99.90
4002;DHT22;2015;48.670;9.060;2024-01-11T01:15:06;-4.90;99.90
4002;DHT22;2015;48.670;9.060;2024-01-11T01:17:38;-4.90;99.90
4002;DHT22;2015;48.670;9.060;2024-01-11T01:20:11;-4.80;99.90
4002;DHT22;2015;48.670;9.060;2024-01-11T01:22:42;-4.90;99.90
4002;DHT22;2015;48.670;9.060;2024-01-11T01:25:14;-4.90;99.90
4002;DHT22;2015;48.670;9.060;2024-01-11T01:27:46;-4.80;99.90
4002;DHT22;2015;48.670;9.060;2024-01-11T01:30:18;-4.80;99.90
4002;DHT22;2015;48.670;9.060;2024-01-11T01:32:49;-4.90;99.90
4002;DHT22;2015;48.670;9.060;2024-01-11T01:35:21;-4.90;99.90
4002;DHT22;2015;48.670;9.060;2024-01-11T01:37:53;-4.90;99.90
4002;DHT22;2015;48.670;9.060;2024-01-11T01:40:25;-4.80;99.90
4002;DHT22;2015;48.670;9.060;2024-01-11T01:43:00;-4.90;99.90
4002;DHT22;2015;48.670;9.060;2024-01-11T01:45:31;-4.90;99.90
4002;DHT22;2015;48.670;9.060;2024-01-11T01:48:03;-4.90;99.90
4002;DHT22;2015;48.670;9.060;2024-01-11T01:50:36;-4.90;99.90
4002;DHT22;2015;48.670;9.060;2024-01-11T01:53:08;-5.00;99.90
4002;DHT22;2015;48.670;9.060;2024-01-11T01:55:39;-5.00;99.90
4002;DHT22;2015;48.670;9.060;2024-01-11T01:58:12;-4.90;99.90
4002;DHT22;2015;48.670;9.060;2024-01-11T02:00:45;-4.90;99.90
4002;DHT22;2015;48.670;9.060;2024-01-11T02:03:17;-4.90;99.90
4002;DHT22;2015;48.670;9.060;2024-01-11T02:05:49;-4.90;99.90
4002;DHT22;2015;48.670;9.060;2024-01-11T02:08:23;-4.90;99.90
4002;DHT22;2015;48.670;9.060;2024-01-11T02:10:56;-5.00;99.90
4002;DHT22;2015;48.670;9.060;2024-01-11T02:13:29;-5.10;99.90
4002;DHT22;2015;48.670;9.060;2024-01-11T02:16:01;-5.20;99.90
4002;DHT22;2015;48.670;9.060;2024-01-11T02:18:33;-5.10;99.90
4002;DHT22;2015;48.670;9.060;2024-01-11T02:21:08;-5.20;99.90
4002;DHT22;2015;48.670;9.060;2024-01-11T02:23:44;-5.20;99.90
4002;DHT22;2015;48.670;9.060;2024-01-11T02:26:18;-5.20;99.90
4002;DHT22;2015;48.670;9.060;2024-01-11T02:28:50;-5.20;99.90
4002;DHT22;2015;48.670;9.060;2024-01-11T02:31:22;-5.20;99.90
4002;DHT22;2015;48.670;9.060;2024-01-11T02:33:54;-5.20;99.90
4002;DHT22;2015;48.670;9.060;2024-01-11T02:36:27;-5.20;99.90
4002;DHT22;2015;48.670;9.060;2024-01-11T02:38:59;-5.20;99.90
4002;DHT22;2015;48.670;9.060;2024-01-11T02:41:32;-5.10;99.90
4002;DHT22;2015;48.670;9.060;2024-01-11T02:44:04;-5.10;99.90
4002;DHT22;2015;48.670;9.060;2024-01-11T02:46:36;-5.10;99.90
4002;DHT22;2015;48.670;9.060;2024-01-11T02:49:07;-5.10;99.90
4002;DHT22;2015;48.670;9.060;2024-01-11T02:51:39;-5.10;99.90
4002;DHT22;2015;48.670;9.060;2024-01-11T02:54:11;-5.10;99.90
4002;DHT22;2015;48.670;9.060;2024-01-11T02:56:43;-5.10;99.90
4002;DHT22;2015;48.670;9.060;2024-01-11T02:59:15;-5.10;99.90
4002;DHT22;2015;48.670;9.060;2024-01-11T03:01:46;-5.10;99.90
4002;DHT22;2015;48.670;9.060;2024-01-11T03:04:18;-5.20;99.90
4002;DHT22;2015;48.670;9.060;2024-01-11T03:06:50;-5.20;99.90
4002;DHT22;2015;48.670;9.060;2024-01-11T03:09:21;-5.20;99.90
4002;DHT22;2015;48.670;9.060;2024-01-11T03:11:53;-5.20;99.90
4002;DHT22;2015;48.670;9.060;2024-01-11T03:14:25;-5.20;99.90
4002;DHT22;2015;48.670;9.060;2024-01-11T03:16:57;-5.20;99.90
4002;DHT22;2015;48.670;9.060;2024-01-11T03:19:28;-5.20;99.90
4002;DHT22;2015;48.670;9.060;2024-01-11T03:22:00;-5.20;99.90
4002;DHT22;2015;48.670;9.060;2024-01-11T03:24:39;-5.20;99.90
4002;DHT22;2015;48.670;9.060;2024-01-11T03:27:11;-5.10;99.90
4002;DHT22;2015;48.670;9.060;2024-01-11T03:29:43;-5.10;99.90
4002;DHT22;2015;48.670;9.060;2024-01-11T03:32:14;-5.20;99.90
4002;DHT22;2015;48.670;9.060;2024-01-11T03:34:46;-5.20;99.90
4002;DHT22;2015;48.670;9.060;2024-01-11T03:37:18;-5.20;99.90
4002;DHT22;2015;48.670;9.060;2024-01-11T03:39:50;-5.20;99.90
4002;DHT22;2015;48.670;9.060;2024-01-11T03:42:21;-5.20;99.90
4002;DHT22;2015;48.670;9.060;2024-01-11T03:44:53;-5.20;99.90
4002;DHT22;2015;48.670;9.060;2024-01-11T03:47:25;-5.20;99.90
4002;DHT22;2015;48.670;9.060;2024-01-11T03:49:57;-5.20;99.90
4002;DHT22;2015;48.670;9.060;2024-01-11T03:52:28;-5.20;99.90
4002;DHT22;2015;48.670;9.060;2024-01-11T03:55:00;-5.20;99.90
4002;DHT22;2015;48.670;9.060;2024-01-11T03:57:32;-5.20;99.90
4002;DHT22;2015;48.670;9.060;2024-01-11T04:00:04;-5.20;99.90
4002;DHT22;2015;48.670;9.060;2024-01-11T04:02:42;-5.20;99.90
4002;DHT22;2015;48.670;9.060;2024-01-11T04:05:13;-5.20;99.90
4002;DHT22;2015;48.670;9.060;2024-01-11T04:07:47;-5.20;99.90
4002;DHT22;2015;48.670;9.060;2024-01-11T04:10:18;-5.10;99.90
4002;DHT22;2015;48.670;9.060;2024-01-11T04:12:50;-5.20;99.90
4002;DHT22;2015;48.670;9.060;2024-01-11T04:15:22;-5.30;99.90
4002;DHT22;2015;48.670;9.060;2024-01-11T04:17:53;-5.30;99.90
4002;DHT22;2015;48.670;9.060;2024-01-11T04:20:25;-5.30;99.90
4002;DHT22;2015;48.670;9.060;2024-01-11T04:22:57;-5.30;99.90
4002;DHT22;2015;48.670;9.060;2024-01-11T04:25:29;-5.20;99.90
4002;DHT22;2015;48.670;9.060;2024-01-11T04:28:00;-5.20;99.90
4002;DHT22;2015;48.670;9.060;2024-01-11T04:30:32;-5.20;99.90
4002;DHT22;2015;48.670;9.060;2024-01-11T04:33:04;-5.20;99.90
4002;DHT22;2015;48.670;9.060;2024-01-11T04:35:36;-5.20;99.90
4002;DHT22;2015;48.670;9.060;2024-01-11T04:38:08;-5.30;99.90
4002;DHT22;2015;48.670;9.060;2024-01-11T04:40:40;-5.30;99.90
4002;DHT22;2015;48.670;9.060;2024-01-11T04:43:11;-5.30;99.90
4002;DHT22;2015;48.670;9.060;2024-01-11T04:45:43;-5.30;99.90
4002;DHT22;2015;48.670;9.060;2024-01-11T04:48:15;-5.30;99.90
4002;DHT22;2015;48.670;9.060;2024-01-11T04:50:47;-5.20;99.90
4002;DHT22;2015;48.670;9.060;2024-01-11T04:53:18;-5.30;99.90
4002;DHT22;2015;48.670;9.060;2024-01-11T04:55:50;-5.30;99.90
4002;DHT22;2015;48.670;9.060;2024-01-11T04:58:22;-5.30;99.90
4002;DHT22;2015;48.670;9.060;2024-01-11T05:00:54;-5.40;99.90
4002;DHT22;2015;48.670;9.060;2024-01-11T05:03:25;-5.40;99.90
4002;DHT22;2015;48.670;9.060;2024-01-11T05:05:58;-5.30;99.90
4002;DHT22;2015;48.670;9.060;2024-01-11T05:08:30;-5.30;99.90
4002;DHT22;2015;48.670;9.060;2024-01-11T05:11:02;-5.30;99.90
4002;DHT22;2015;48.670;9.060;2024-01-11T05:13:34;-5.40;99.90
4002;DHT22;2015;48.670;9.060;2024-01-11T05:16:05;-5.40;99.90
4002;DHT22;2015;48.670;9.060;2024-01-11T05:18:37;-5.50;99.90
4002;DHT22;2015;48.670;9.060;2024-01-11T05:21:09;-5.50;99.90
4002;DHT22;2015;48.670;9.060;2024-01-11T05:23:41;-5.50;99.90
4002;DHT22;2015;48.670;9.060;2024-01-11T05:26:16;-5.50;99.90
4002;DHT22;2015;48.670;9.060;2024-01-11T05:28:49;-5.50;99.90
4002;DHT22;2015;48.670;9.060;2024-01-11T05:31:20;-5.50;99.90
4002;DHT22;2015;48.670;9.060;2024-01-11T05:33:53;-5.60;99.90
4002;DHT22;2015;48.670;9.060;2024-01-11T05:36:25;-5.60;99.90
4002;DHT22;2015;48.670;9.060;2024-01-11T05:38:57;-5.50;99.90
4002;DHT22;2015;48.670;9.060;2024-01-11T05:41:29;-5.60;99.90
4002;DHT22;2015;48.670;9.060;2024-01-11T05:44:00;-5.60;99.90
4002;DHT22;2015;48.670;9.060;2024-01-11T05:46:32;-5.60;99.90
4002;DHT22;2015;48.670;9.060;2024-01-11T05:49:04;-5.50;99.90
4002;DHT22;2015;48.670;9.060;2024-01-11T05:51:37;-5.60;99.90
4002;DHT22;2015;48.670;9.060;2024-01-11T05:54:08;-5.60;99.90
4002;DHT22;2015;48.670;9.060;2024-01-11T05:56:40;-5.60;99.90
4002;DHT22;2015;48.670;9.060;2024-01-11T05:59:12;-5.60;99.90
4002;DHT22;2015;48.670;9.060;2024-01-11T06:01:44;-5.60;99.90
4002;DHT22;2015;48.670;9.060;2024-01-11T06:04:16;-5.70;99.90
4002;DHT22;2015;48.670;9.060;2024-01-11T06:06:48;-5.70;99.90
4002;DHT22;2015;48.670;9.060;2024-01-11T06:09:19;-5.70;99.90
4002;DHT22;2015;48.670;9.060;2024-01-11T06:11:51;-5.80;99.90
4002;DHT22;2015;48.670;9.060;2024-01-11T06:14:23;-5.70;99.90
4002;DHT22;2015;48.670;9.060;2024-01-11T06:16:55;-5.70;99.90
4002;DHT22;2015;48.670;9.060;2024-01-11T06:19:26;-5.70;99.90
4002;DHT22;2015;48.670;9.060;2024-01-11T06:21:58;-5.80;99.90
4002;DHT22;2015;48.670;9.060;2024-01-11T06:24:30;-5.80;99.90
4002;DHT22;2015;48.670;9.060;2024-01-11T06:27:02;-5.80;99.90
4002;DHT22;2015;48.670;9.060;2024-01-11T06:29:34;-5.80;99.90
4002;DHT22;2015;48.670;9.060;2024-01-11T06:32:06;-5.80;99.90
4002;DHT22;2015;48.670;9.060;2024-01-11T06:34:38;-5.80;99.90
4002;DHT22;2015;48.670;9.060;2024-01-11T06:37:13;-5.80;99.90
4002;DHT22;2015;48.670;9.060;2024-01-11T06:39:45;-5.80;99.90
4002;DHT22;2015;48.670;9.060;2024-01-11T06:42:16;-5.80;99.90
4002;DHT22;2015;48.670;9.060;2024-01-11T06:44:50;-5.80;99.90
4002;DHT22;2015;48.670;9.060;2024-01-11T06:47:22;-5.80;99.90
4002;DHT22;2015;48.670;9.060;2024-01-11T06:49:54;-5.90;99.90
4002;DHT22;2015;48.670;9.060;2024-01-11T06:52:25;-5.90;99.90
4002;DHT22;2015;48.670;9.060;2024-01-11T06:54:57;-5.90;99.90
4002;DHT22;2015;48.670;9.060;2024-01-11T06:57:29;-5.90;99.90
4002;DHT22;2015;48.670;9.060;2024-01-11T07:00:00;-5.90;99.90
4002;DHT22;2015;48.670;9.060;2024-01-11T07:02:33;-5.90;99.90
4002;DHT22;2015;48.670;9.060;2024-01-11T07:05:04;-5.90;99.90
4002;DHT22;2015;48.670;9.060;2024-01-11T07:07:36;-5.90;99.90
4002;DHT22;2015;48.670;9.060;2024-01-11T07:10:08;-5.90;99.90
4002;DHT22;2015;48.670;9.060;2024-01-11T07:12:40;-5.90;99.90
4002;DHT22;2015;48.670;9.060;2024-01-11T07:15:14;-5.90;99.90
4002;DHT22;2015;48.670;9.060;2024-01-11T07:17:46;-5.90;99.90
4002;DHT22;2015;48.670;9.060;2024-01-11T07:20:18;-5.90;99.90
4002;DHT22;2015;48.670;9.060;2024-01-11T07:22:50;-5.90;99.90
4002;DHT22;2015;48.670;9.060;2024-01-11T07:25:22;-5.90;99.90
4002;DHT22;2015;48.670;9.060;2024-01-11T07:27:53;-5.90;99.90
4002;DHT22;2015;48.670;9.060;2024-01-11T07:30:25;-5.90;99.90
4002;DHT22;2015;48.670;9.060;2024-01-11T07:32:57;-5.90;99.90
4002;DHT22;2015;48.670;9.060;2024-01-11T07:35:29;-5.90;99.90
4002;DHT22;2015;48.670;9.060;2024-01-11T07:38:00;-5.80;99.90
4002;DHT22;2015;48.670;9.060;2024-01-11T07:40:32;-5.80;99.90
4002;DHT22;2015;48.670;9.060;2024-01-11T07:43:07;-5.80;99.90
4002;DHT22;2015;48.670;9.060;2024-01-11T07:45:39;-5.70;99.90
4002;DHT22;2015;48.670;9.060;2024-01-11T07:48:10;-5.70;99.90
4002;DHT22;2015;48.670;9.060;2024-01-11T07:50:42;-5.70;99.90
4002;DHT22;2015;48.670;9.060;2024-01-11T07:53:14;-5.70;99.90
4002;DHT22;2015;48.670;9.060;2024-01-11T07:55:46;-5.60;99.90
4002;DHT22;2015;48.670;9.060;2024-01-11T07:58:19;-5.60;99.90
4002;DHT22;2015;48.670;9.060;2024-01-11T08:00:52;-5.50;99.90
4002;DHT22;2015;48.670;9.060;2024-01-11T08:03:23;-5.50;99.90
4002;DHT22;2015;48.670;9.060;2024-01-11T08:05:55;-5.50;99.90
4002;DHT22;2015;48.670;9.060;2024-01-11T08:08:27;-5.50;99.90
4002;DHT22;2015;48.670;9.060;2024-01-11T08:10:59;-5.40;99.90
4002;DHT22;2015;48.670;9.060;2024-01-11T08:13:31;-5.40;99.90
4002;DHT22;2015;48.670;9.060;2024-01-11T08:16:03;-5.30;99.90
4002;DHT22;2015;48.670;9.060;2024-01-11T08:18:36;-5.30;99.90
4002;DHT22;2015;48.670;9.060;2024-01-11T08:21:08;-5.20;99.90
4002;DHT22;2015;48.670;9.060;2024-01-11T08:23:41;-5.10;99.90
4002;DHT22;2015;48.670;9.060;2024-01-11T08:26:17;-5.10;99.90
4002;DHT22;2015;48.670;9.060;2024-01-11T08:28:53;-5.00;99.90
4002;DHT22;2015;48.670;9.060;2024-01-11T08:31:25;-4.90;99.90
4002;DHT22;2015;48.670;9.060;2024-01-11T08:33:57;-4.80;99.90
4002;DHT22;2015;48.670;9.060;2024-01-11T08:36:32;-4.70;99.90
4002;DHT22;2015;48.670;9.060;2024-01-11T08:39:07;-4.60;99.90
4002;DHT22;2015;48.670;9.060;2024-01-11T08:41:39;-4.60;99.90
4002;DHT22;2015;48.670;9.060;2024-01-11T08:44:11;-4.50;99.90
4002;DHT22;2015;48.670;9.060;2024-01-11T08:46:43;-4.40;99.90
4002;DHT22;2015;48.670;9.060;2024-01-11T08:49:15;-4.40;99.90
4002;DHT22;2015;48.670;9.060;2024-01-11T08:51:47;-4.30;99.90
4002;DHT22;2015;48.670;9.060;2024-01-11T08:54:19;-4.20;99.90
4002;DHT22;2015;48.670;9.060;2024-01-11T08:56:52;-4.00;99.90
4002;DHT22;2015;48.670;9.060;2024-01-11T08:59:24;-3.90;99.90
4002;DHT22;2015;48.670;9.060;2024-01-11T09:01:57;-3.80;99.90
4002;DHT22;2015;48.670;9.060;2024-01-11T09:04:45;-3.70;99.90
4002;DHT22;2015;48.670;9.060;2024-01-11T09:07:19;-3.50;99.90
4002;DHT22;2015;48.670;9.060;2024-01-11T09:09:51;-3.50;99.90
4002;DHT22;2015;48.670;9.060;2024-01-11T09:12:28;-3.40;99.90
4002;DHT22;2015;48.670;9.060;2024-01-11T09:14:59;-3.30;99.90
4002;DHT22;2015;48.670;9.060;2024-01-11T09:17:31;-3.20;99.90
4002;DHT22;2015;48.670;9.060;2024-01-11T09:20:05;-3.10;99.90
4002;DHT22;2015;48.670;9.060;2024-01-11T09:22:37;-2.90;99.90
4002;DHT22;2015;48.670;9.060;2024-01-11T09:25:08;-2.70;99.90
4002;DHT22;2015;48.670;9.060;2024-01-11T09:27:40;-2.30;99.90
4002;DHT22;2015;48.670;9.060;2024-01-11T09:30:12;-1.10;99.90
4002;DHT22;2015;48.670;9.060;2024-01-11T09:32:44;0.20;99.90
4002;DHT22;2015;48.670;9.060;2024-01-11T09:35:16;1.30;99.90
4002;DHT22;2015;48.670;9.060;2024-01-11T09:37:48;2.30;99.90
4002;DHT22;2015;48.670;9.060;2024-01-11T09:40:20;3.30;99.90
4002;DHT22;2015;48.670;9.060;2024-01-11T09:42:52;4.20;99.90
4002;DHT22;2015;48.670;9.060;2024-01-11T09:45:24;4.70;99.90
4002;DHT22;2015;48.670;9.060;2024-01-11T09:47:57;5.00;99.90
4002;DHT22;2015;48.670;9.060;2024-01-11T09:50:29;5.40;99.90
4002;DHT22;2015;48.670;9.060;2024-01-11T09:53:03;5.70;99.90
4002;DHT22;2015;48.670;9.060;2024-01-11T09:55:37;5.60;99.90
4002;DHT22;2015;48.670;9.060;2024-01-11T09:58:09;5.80;99.90
4002;DHT22;2015;48.670;9.060;2024-01-11T10:00:42;6.20;99.90
4002;DHT22;2015;48.670;9.060;2024-01-11T10:03:15;5.70;99.90
4002;DHT22;2015;48.670;9.060;2024-01-11T10:05:49;5.50;99.90
4002;DHT22;2015;48.670;9.060;2024-01-11T10:08:23;5.40;99.90
4002;DHT22;2015;48.670;9.060;2024-01-11T10:10:55;4.90;99.90
4002;DHT22;2015;48.670;9.060;2024-01-11T10:13:28;4.90;99.90
4002;DHT22;2015;48.670;9.060;2024-01-11T10:16:10;4.10;99.90
4002;DHT22;2015;48.670;9.060;2024-01-11T10:18:45;3.40;99.90
4002;DHT22;2015;48.670;9.060;2024-01-11T10:21:16;2.90;99.90
4002;DHT22;2015;48.670;9.060;2024-01-11T10:23:51;2.40;99.90
4002;DHT22;2015;48.670;9.060;2024-01-11T10:26:23;2.30;99.90
4002;DHT22;2015;48.670;9.060;2024-01-11T10:28:59;1.90;99.90
4002;DHT22;2015;48.670;9.060;2024-01-11T10:31:31;1.90;99.90
4002;DHT22;2015;48.670;9.060;2024-01-11T10:34:04;1.90;99.90
4002;DHT22;2015;48.670;9.060;2024-01-11T10:36:36;2.10;99.90
4002;DHT22;2015;48.670;9.060;2024-01-11T10:39:09;2.20;99.90
4002;DHT22;2015;48.670;9.060;2024-01-11T10:41:51;2.20;99.90
4002;DHT22;2015;48.670;9.060;2024-01-11T10:44:22;2.40;99.90
4002;DHT22;2015;48.670;9.060;2024-01-11T10:46:56;2.70;99.90
4002;DHT22;2015;48.670;9.060;2024-01-11T10:49:30;3.10;99.90
4002;DHT22;2015;48.670;9.060;2024-01-11T10:52:05;3.20;99.90
4002;DHT22;2015;48.670;9.060;2024-01-11T10:54:40;3.30;99.90
4002;DHT22;2015;48.670;9.060;2024-01-11T10:57:13;3.70;99.90
4002;DHT22;2015;48.670;9.060;2024-01-11T10:59:45;3.80;99.90
4002;DHT22;2015;48.670;9.060;2024-01-11T11:02:19;3.80;99.90
4002;DHT22;2015;48.670;9.060;2024-01-11T11:04:52;4.00;99.90
4002;DHT22;2015;48.670;9.060;2024-01-11T11:07:26;4.20;99.90
4002;DHT22;2015;48.670;9.060;2024-01-11T11:09:59;4.30;99.90
4002;DHT22;2015;48.670;9.060;2024-01-11T11:12:32;4.40;99.90
4002;DHT22;2015;48.670;9.060;2024-01-11T11:15:07;5.00;99.90
4002;DHT22;2015;48.670;9.060;2024-01-11T11:17:40;5.40;99.90
4002;DHT22;2015;48.670;9.060;2024-01-11T11:20:13;5.30;99.90
4002;DHT22;2015;48.670;9.060;2024-01-11T11:23:07;5.10;99.90
4002;DHT22;2015;48.670;9.060;2024-01-11T11:25:42;5.70;99.90
4002;DHT22;2015;48.670;9.060;2024-01-11T11:28:16;5.50;99.90
4002;DHT22;2015;48.670;9.060;2024-01-11T11:30:49;5.20;99.90
4002;DHT22;2015;48.670;9.060;2024-01-11T11:33:24;5.10;99.90
4002;DHT22;2015;48.670;9.060;2024-01-11T11:36:00;4.40;99.90
4002;DHT22;2015;48.670;9.060;2024-01-11T11:38:31;3.60;99.90
4002;DHT22;2015;48.670;9.060;2024-01-11T11:41:04;2.80;99.90
4002;DHT22;2015;48.670;9.060;2024-01-11T11:43:36;2.40;99.90
4002;DHT22;2015;48.670;9.060;2024-01-11T11:46:08;2.00;99.90
4002;DHT22;2015;48.670;9.060;2024-01-11T11:51:14;1.30;99.90
4002;DHT22;2015;48.670;9.060;2024-01-11T11:53:51;1.00;99.90
4002;DHT22;2015;48.670;9.060;2024-01-11T11:56:23;0.90;99.90
4002;DHT22;2015;48.670;9.060;2024-01-11T11:58:56;0.80;99.90
4002;DHT22;2015;48.670;9.060;2024-01-11T12:01:28;0.70;99.90
4002;DHT22;2015;48.670;9.060;2024-01-11T12:04:00;0.60;99.90
4002;DHT22;2015;48.670;9.060;2024-01-11T12:06:34;0.50;99.90
4002;DHT22;2015;48.670;9.060;2024-01-11T12:09:06;0.50;99.90
4002;DHT22;2015;48.670;9.060;2024-01-11T12:11:38;0.50;99.90
4002;DHT22;2015;48.670;9.060;2024-01-11T12:14:10;0.40;99.90
4002;DHT22;2015;48.670;9.060;2024-01-11T12:16:42;0.40;99.90
4002;DHT22;2015;48.670;9.060;2024-01-11T12:19:13;0.30;99.90
4002;DHT22;2015;48.670;9.060;2024-01-11T12:21:45;0.30;99.90
4002;DHT22;2015;48.670;9.060;2024-01-11T12:24:17;0.30;99.90
4002;DHT22;2015;48.670;9.060;2024-01-11T12:26:49;0.30;99.90
4002;DHT22;2015;48.670;9.060;2024-01-11T12:29:30;0.40;99.90
4002;DHT22;2015;48.670;9.060;2024-01-11T12:32:14;0.40;99.90
4002;DHT22;2015;48.670;9.060;2024-01-11T12:34:48;0.40;99.90
4002;DHT22;2015;48.670;9.060;2024-01-11T12:37:20;0.40;99.90
4002;DHT22;2015;48.670;9.060;2024-01-11T12:39:57;0.30;99.90
4002;DHT22;2015;48.670;9.060;2024-01-11T12:42:29;0.40;99.90
4002;DHT22;2015;48.670;9.060;2024-01-11T12:45:01;0.40;99.90
4002;DHT22;2015;48.670;9.060;2024-01-11T12:47:33;0.40;99.90
4002;DHT22;2015;48.670;9.060;2024-01-11T12:50:06;0.40;99.90
4002;DHT22;2015;48.670;9.060;2024-01-11T12:52:39;0.40;99.90
4002;DHT22;2015;48.670;9.060;2024-01-11T12:55:18;0.40;99.90
4002;DHT22;2015;48.670;9.060;2024-01-11T12:58:09;0.40;99.90
4002;DHT22;2015;48.670;9.060;2024-01-11T13:00:41;0.40;99.90
4002;DHT22;2015;48.670;9.060;2024-01-11T13:03:13;0.40;99.90
4002;DHT22;2015;48.670;9.060;2024-01-11T13:05:44;0.50;99.90
4002;DHT22;2015;48.670;9.060;2024-01-11T13:08:16;0.50;99.90
4002;DHT22;2015;48.670;9.060;2024-01-11T13:10:51;0.50;99.90
4002;DHT22;2015;48.670;9.060;2024-01-11T13:13:24;0.50;99.90
4002;DHT22;2015;48.670;9.060;2024-01-11T13:15:58;0.50;99.90
4002;DHT22;2015;48.670;9.060;2024-01-11T13:18:29;0.40;99.90
4002;DHT22;2015;48.670;9.060;2024-01-11T13:21:02;0.40;99.90
4002;DHT22;2015;48.670;9.060;2024-01-11T13:23:34;0.40;99.90
4002;DHT22;2015;48.670;9.060;2024-01-11T13:26:07;0.40;99.90
4002;DHT22;2015;48.670;9.060;2024-01-11T13:28:39;0.40;99.90
4002;DHT22;2015;48.670;9.060;2024-01-11T13:31:10;0.40;99.90
4002;DHT22;2015;48.670;9.060;2024-01-11T13:33:42;0.40;99.90
4002;DHT22;2015;48.670;9.060;2024-01-11T13:36:14;0.40;99.90
4002;DHT22;2015;48.670;9.060;2024-01-11T13:38:46;0.40;99.90
4002;DHT22;2015;48.670;9.060;2024-01-11T13:41:18;0.40;99.90
4002;DHT22;2015;48.670;9.060;2024-01-11T13:43:50;0.40;99.90
4002;DHT22;2015;48.670;9.060;2024-01-11T13:46:22;0.40;99.90
4002;DHT22;2015;48.670;9.060;2024-01-11T13:48:55;0.40;99.90
4002;DHT22;2015;48.670;9.060;2024-01-11T13:51:26;0.40;99.90
4002;DHT22;2015;48.670;9.060;2024-01-11T13:53:58;0.40;99.90
4002;DHT22;2015;48.670;9.060;2024-01-11T13:56:32;0.40;99.90
4002;DHT22;2015;48.670;9.060;2024-01-11T13:59:03;0.40;99.90
4002;DHT22;2015;48.670;9.060;2024-01-11T14:01:35;0.40;99.90
4002;DHT22;2015;48.670;9.060;2024-01-11T14:04:07;0.40;99.90
4002;DHT22;2015;48.670;9.060;2024-01-11T14:06:39;0.40;99.90
4002;DHT22;2015;48.670;9.060;2024-01-11T14:09:10;0.30;99.90
4002;DHT22;2015;48.670;9.060;2024-01-11T14:11:44;0.30;99.90
4002;DHT22;2015;48.670;9.060;2024-01-11T14:14:16;0.30;99.90
4002;DHT22;2015;48.670;9.060;2024-01-11T14:16:50;0.40;99.90
4002;DHT22;2015;48.670;9.060;2024-01-11T14:19:23;0.40;99.90
4002;DHT22;2015;48.670;9.060;2024-01-11T14:21:54;0.30;99.90
4002;DHT22;2015;48.670;9.060;2024-01-11T14:24:26;0.30;99.90
4002;DHT22;2015;48.670;9.060;2024-01-11T14:27:07;0.20;99.90
4002;DHT22;2015;48.670;9.060;2024-01-11T14:29:38;0.20;99.90
4002;DHT22;2015;48.670;9.060;2024-01-11T14:32:11;0.20;99.90
4002;DHT22;2015;48.670;9.060;2024-01-11T14:34:55;0.10;99.90
4002;DHT22;2015;48.670;9.060;2024-01-11T14:37:27;0.00;99.90
4002;DHT22;2015;48.670;9.060;2024-01-11T14:39:59;0.00;99.90
4002;DHT22;2015;48.670;9.060;2024-01-11T14:42:31;0.00;99.90
4002;DHT22;2015;48.670;9.060;2024-01-11T14:45:05;-0.10;99.90
4002;DHT22;2015;48.670;9.060;2024-01-11T14:47:37;-0.10;99.90
4002;DHT22;2015;48.670;9.060;2024-01-11T14:50:09;-0.10;99.90
4002;DHT22;2015;48.670;9.060;2024-01-11T14:52:42;-0.20;99.90
4002;DHT22;2015;48.670;9.060;2024-01-11T14:55:15;-0.20;99.90
4002;DHT22;2015;48.670;9.060;2024-01-11T14:57:48;-0.20;99.90
4002;DHT22;2015;48.670;9.060;2024-01-11T15:00:24;-0.30;99.90
4002;DHT22;2015;48.670;9.060;2024-01-11T15:02:55;-0.30;99.90
4002;DHT22;2015;48.670;9.060;2024-01-11T15:05:27;-0.40;99.90
4002;DHT22;2015;48.670;9.060;2024-01-11T15:07:59;-0.40;99.90
4002;DHT22;2015;48.670;9.060;2024-01-11T15:10:31;-0.40;99.90
4002;DHT22;2015;48.670;9.060;2024-01-11T15:13:04;-0.40;99.90
4002;DHT22;2015;48.670;9.060;2024-01-11T15:15:35;-0.50;99.90
4002;DHT22;2015;48.670;9.060;2024-01-11T15:18:09;-0.50;99.90
4002;DHT22;2015;48.670;9.060;2024-01-11T15:20:42;-0.60;99.90
4002;DHT22;2015;48.670;9.060;2024-01-11T15:23:14;-0.60;99.90
4002;DHT22;2015;48.670;9.060;2024-01-11T15:25:46;-0.70;99.90
4002;DHT22;2015;48.670;9.060;2024-01-11T15:28:17;-0.80;99.90
4002;DHT22;2015;48.670;9.060;2024-01-11T15:30:49;-0.90;99.90
4002;DHT22;2015;48.670;9.060;2024-01-11T15:33:21;-1.00;99.90
4002;DHT22;2015;48.670;9.060;2024-01-11T15:35:53;-1.00;99.90
4002;DHT22;2015;48.670;9.060;2024-01-11T15:38:25;-1.10;99.90
4002;DHT22;2015;48.670;9.060;2024-01-11T15:40:58;-1.20;99.90
4002;DHT22;2015;48.670;9.060;2024-01-11T15:43:29;-1.30;99.90
4002;DHT22;2015;48.670;9.060;2024-01-11T15:46:02;-1.30;99.90
4002;DHT22;2015;48.670;9.060;2024-01-11T15:48:34;-1.40;99.90
4002;DHT22;2015;48.670;9.060;2024-01-11T15:51:06;-1.50;99.90
4002;DHT22;2015;48.670;9.060;2024-01-11T15:53:38;-1.50;99.90
4002;DHT22;2015;48.670;9.060;2024-01-11T15:56:10;-1.60;99.90
4002;DHT22;2015;48.670;9.060;2024-01-11T15:58:43;-1.70;99.90
4002;DHT22;2015;48.670;9.060;2024-01-11T16:01:14;-1.70;99.90
4002;DHT22;2015;48.670;9.060;2024-01-11T16:03:46;-1.80;99.90
4002;DHT22;2015;48.670;9.060;2024-01-11T16:06:19;-1.80;99.90
4002;DHT22;2015;48.670;9.060;2024-01-11T16:08:52;-1.80;99.90
4002;DHT22;2015;48.670;9.060;2024-01-11T16:11:23;-1.90;99.90
4002;DHT22;2015;48.670;9.060;2024-01-11T16:13:56;-2.00;99.90
4002;DHT22;2015;48.670;9.060;2024-01-11T16:16:28;-2.00;99.90
4002;DHT22;2015;48.670;9.060;2024-01-11T16:19:00;-2.10;99.90
4002;DHT22;2015;48.670;9.060;2024-01-11T16:21:32;-2.10;99.90
4002;DHT22;2015;48.670;9.060;2024-01-11T16:24:04;-2.10;99.90
4002;DHT22;2015;48.670;9.060;2024-01-11T16:26:35;-2.20;99.90
4002;DHT22;2015;48.670;9.060;2024-01-11T16:29:08;-2.20;99.90
4002;DHT22;2015;48.670;9.060;2024-01-11T16:31:39;-2.20;99.90
4002;DHT22;2015;48.670;9.060;2024-01-11T16:34:11;-2.30;99.90
4002;DHT22;2015;48.670;9.060;2024-01-11T16:36:44;-2.30;99.90
4002;DHT22;2015;48.670;9.060;2024-01-11T16:39:16;-2.40;99.90
4002;DHT22;2015;48.670;9.060;2024-01-11T16:41:48;-2.30;99.90
4002;DHT22;2015;48.670;9.060;2024-01-11T16:44:20;-2.40;99.90